createdAt,value
2023-05-10T00:00:11.085Z,81.79
2023-05-10T00:01:11.070Z,81.89
2023-05-10T00:02:11.101Z,81.86
2023-05-10T00:03:11.240Z,81.74
2023-05-10T00:04:11.160Z,81.64
2023-05-10T00:05:11.110Z,81.72
2023-05-10T00:06:11.074Z,81.64
2023-05-10T00:07:11.071Z,81.62
2023-05-10T00:08:11.077Z,81.88
2023-05-10T00:09:11.098Z,81.97
2023-05-10T00:10:11.106Z,82.15
2023-05-10T00:11:11.091Z,82.21
2023-05-10T00:12:11.087Z,82.13
2023-05-10T00:13:11.095Z,82.24
2023-05-10T00:14:11.073Z,82.51
2023-05-10T00:15:11.081Z,82.51
2023-05-10T00:16:11.143Z,82.54
2023-05-10T00:17:11.110Z,82.62
2023-05-10T00:18:11.083Z,82.66
2023-05-10T00:19:11.075Z,82.46
2023-05-10T00:20:11.082Z,82.58
2023-05-10T00:21:11.078Z,82.41
2023-05-10T00:22:11.077Z,82.42
2023-05-10T00:23:11.082Z,82.36
2023-05-10T00:24:11.079Z,82.41
2023-05-10T00:25:11.075Z,82.51
2023-05-10T00:26:11.083Z,82.49
2023-05-10T00:27:11.076Z,82.41
2023-05-10T00:28:11.081Z,82.30
2023-05-10T00:29:11.086Z,82.35
2023-05-10T00:30:11.082Z,82.37
2023-05-10T00:31:11.078Z,82.34
2023-05-10T00:32:11.108Z,82.26
2023-05-10T00:33:11.078Z,82.24
2023-05-10T00:34:11.090Z,82.12
2023-05-10T00:35:11.082Z,82.13
2023-05-10T00:36:12.082Z,82.21
2023-05-10T00:37:11.081Z,82.17
2023-05-10T00:38:11.091Z,82.13
2023-05-10T00:39:11.082Z,82.08
2023-05-10T00:40:11.084Z,82.19
2023-05-10T00:41:11.103Z,82.17
2023-05-10T00:42:11.079Z,82.08
2023-05-10T00:43:11.079Z,81.88
2023-05-10T00:44:11.090Z,81.69
2023-05-10T00:45:11.082Z,81.87
2023-05-10T00:46:11.093Z,82.03
2023-05-10T00:47:11.082Z,82.07
2023-05-10T00:48:11.085Z,82.11
2023-05-10T00:49:11.081Z,82.05
2023-05-10T00:50:11.081Z,81.94
2023-05-10T00:51:11.084Z,81.90
2023-05-10T00:52:11.086Z,81.99
2023-05-10T00:53:11.094Z,82.01
2023-05-10T00:54:11.087Z,82.04
2023-05-10T00:55:11.081Z,81.98
2023-05-10T00:56:11.084Z,81.83
2023-05-10T00:57:11.084Z,81.70
2023-05-10T00:58:11.083Z,81.75
2023-05-10T00:59:11.084Z,81.71
2023-05-10T01:00:11.091Z,81.71
2023-05-10T01:01:11.089Z,81.74
2023-05-10T01:02:11.076Z,81.68
2023-05-10T01:03:11.141Z,81.66
2023-05-10T01:04:11.061Z,81.64
2023-05-10T01:05:11.163Z,81.64
2023-05-10T01:06:11.080Z,81.83
2023-05-10T01:07:11.063Z,81.82
2023-05-10T01:08:11.064Z,81.76
2023-05-10T01:09:11.072Z,81.60
2023-05-10T01:10:11.089Z,81.49
2023-05-10T01:11:11.079Z,81.49
2023-05-10T01:12:11.113Z,81.45
2023-05-10T01:13:11.072Z,81.38
2023-05-10T01:14:11.067Z,81.21
2023-05-10T01:15:11.070Z,81.26
2023-05-10T01:16:11.113Z,81.36
2023-05-10T01:17:11.071Z,81.39
2023-05-10T01:18:11.080Z,81.40
2023-05-10T01:19:19.074Z,81.35
2023-05-10T01:20:11.065Z,81.30
2023-05-10T01:21:19.066Z,81.35
2023-05-10T01:22:19.070Z,81.23
2023-05-10T01:23:19.081Z,81.26
2023-05-10T01:24:19.070Z,81.43
2023-05-10T01:25:23.070Z,81.46
2023-05-10T01:26:19.070Z,81.46
2023-05-10T01:27:19.080Z,81.40
2023-05-10T01:28:19.067Z,81.43
2023-05-10T01:29:21.073Z,81.48
2023-05-10T01:30:19.070Z,81.44
2023-05-10T01:31:21.080Z,81.39
2023-05-10T01:32:20.076Z,81.39
2023-05-10T01:33:17.073Z,81.28
2023-05-10T01:34:16.068Z,81.26
2023-05-10T01:35:19.064Z,81.23
2023-05-10T01:36:19.067Z,81.21
2023-05-10T01:37:17.075Z,81.13
2023-05-10T01:38:19.070Z,81.08
2023-05-10T01:39:20.068Z,81.16
2023-05-10T01:40:19.078Z,81.19
2023-05-10T01:41:19.084Z,81.14
2023-05-10T01:42:14.088Z,81.16
2023-05-10T01:43:18.064Z,81.05
2023-05-10T01:44:21.065Z,81.07
2023-05-10T01:45:19.070Z,81.01
2023-05-10T01:46:21.083Z,81.08
2023-05-10T01:47:19.066Z,80.95
2023-05-10T01:48:12.131Z,80.91
2023-05-10T01:49:12.069Z,80.96
2023-05-10T01:50:16.399Z,81.00
2023-05-10T01:51:11.064Z,81.05
2023-05-10T01:52:12.064Z,81.06
2023-05-10T01:53:11.074Z,81.15
2023-05-10T01:54:11.061Z,81.28
2023-05-10T01:55:16.108Z,81.52
2023-05-10T01:56:11.065Z,81.73
2023-05-10T01:57:11.073Z,81.65
2023-05-10T01:58:13.064Z,81.63
2023-05-10T01:59:16.062Z,81.58
2023-05-10T02:00:11.083Z,81.57
2023-05-10T02:01:11.111Z,81.66
2023-05-10T02:02:11.072Z,81.61
2023-05-10T02:03:11.136Z,81.50
2023-05-10T02:04:11.137Z,81.33
2023-05-10T02:05:12.064Z,81.37
2023-05-10T02:06:11.072Z,81.26
2023-05-10T02:07:11.062Z,81.30
2023-05-10T02:08:11.065Z,81.28
2023-05-10T02:09:11.070Z,81.24
2023-05-10T02:10:11.068Z,81.31
2023-05-10T02:11:13.066Z,81.35
2023-05-10T02:12:11.066Z,81.41
2023-05-10T02:13:11.114Z,81.40
2023-05-10T02:14:12.066Z,81.35
2023-05-10T02:15:12.073Z,81.26
2023-05-10T02:16:11.110Z,81.35
2023-05-10T02:17:11.064Z,81.37
2023-05-10T02:18:11.069Z,81.22
2023-05-10T02:19:11.089Z,81.18
2023-05-10T02:20:11.070Z,81.35
2023-05-10T02:21:11.068Z,81.33
2023-05-10T02:22:11.067Z,81.34
2023-05-10T02:23:11.073Z,81.26
2023-05-10T02:24:11.074Z,81.21
2023-05-10T02:25:12.069Z,81.10
2023-05-10T02:26:11.071Z,81.02
2023-05-10T02:27:11.072Z,81.01
2023-05-10T02:28:11.073Z,80.95
2023-05-10T02:29:11.077Z,81.01
2023-05-10T02:30:11.069Z,81.00
2023-05-10T02:31:11.071Z,80.99
2023-05-10T02:32:11.127Z,80.97
2023-05-10T02:33:11.071Z,81.17
2023-05-10T02:34:11.074Z,81.04
2023-05-10T02:35:11.066Z,81.13
2023-05-10T02:36:11.070Z,81.11
2023-05-10T02:37:11.095Z,81.17
2023-05-10T02:38:11.071Z,81.15
2023-05-10T02:39:14.072Z,80.93
2023-05-10T02:40:11.075Z,80.89
2023-05-10T02:41:11.078Z,80.94
2023-05-10T02:42:14.075Z,80.97
2023-05-10T02:43:13.074Z,80.89
2023-05-10T02:44:11.071Z,80.94
2023-05-10T02:45:12.085Z,81.13
2023-05-10T02:46:11.116Z,81.12
2023-05-10T02:47:11.081Z,81.15
2023-05-10T02:48:11.087Z,81.25
2023-05-10T02:49:11.077Z,81.22
2023-05-10T02:50:11.073Z,81.23
2023-05-10T02:51:12.083Z,81.29
2023-05-10T02:52:11.079Z,81.20
2023-05-10T02:53:15.074Z,81.20
2023-05-10T02:54:13.089Z,81.36
2023-05-10T02:55:12.080Z,81.48
2023-05-10T02:56:21.081Z,81.53
2023-05-10T02:57:14.074Z,81.46
2023-05-10T02:58:11.092Z,81.56
2023-05-10T02:59:11.075Z,81.42
2023-05-10T03:00:11.081Z,81.26
2023-05-10T03:01:11.095Z,81.30
2023-05-10T03:02:11.072Z,81.61
2023-05-10T03:03:11.081Z,81.71
2023-05-10T03:04:11.122Z,81.55
2023-05-10T03:05:11.075Z,81.53
2023-05-10T03:06:11.076Z,81.34
2023-05-10T03:07:11.085Z,81.55
2023-05-10T03:08:11.080Z,81.59
2023-05-10T03:09:11.073Z,81.78
2023-05-10T03:10:11.080Z,81.97
2023-05-10T03:11:21.079Z,81.98
2023-05-10T03:12:21.078Z,82.01
2023-05-10T03:13:21.157Z,82.05
2023-05-10T03:14:19.095Z,82.11
2023-05-10T03:15:21.090Z,82.24
2023-05-10T03:16:21.103Z,82.18
2023-05-10T03:17:18.078Z,82.08
2023-05-10T03:18:17.088Z,81.95
2023-05-10T03:19:19.084Z,82.04
2023-05-10T03:20:12.086Z,82.08
2023-05-10T03:21:12.073Z,81.91
2023-05-10T03:22:13.082Z,81.75
2023-05-10T03:23:19.111Z,81.84
2023-05-10T03:24:13.091Z,81.88
2023-05-10T03:25:11.076Z,81.77
2023-05-10T03:26:11.085Z,81.70
2023-05-10T03:27:11.081Z,81.65
2023-05-10T03:28:11.077Z,81.67
2023-05-10T03:29:11.079Z,81.48
2023-05-10T03:30:13.083Z,81.38
2023-05-10T03:31:11.100Z,81.42
2023-05-10T03:32:11.083Z,81.26
2023-05-10T03:33:11.079Z,81.24
2023-05-10T03:34:11.075Z,81.12
2023-05-10T03:35:11.080Z,81.05
2023-05-10T03:36:11.083Z,81.10
2023-05-10T03:37:11.084Z,80.96
2023-05-10T03:38:11.082Z,81.03
2023-05-10T03:39:11.089Z,80.96
2023-05-10T03:40:11.090Z,81.05
2023-05-10T03:41:11.090Z,81.06
2023-05-10T03:42:11.089Z,81.03
2023-05-10T03:43:11.085Z,81.07
2023-05-10T03:44:11.084Z,81.10
2023-05-10T03:45:11.135Z,80.94
2023-05-10T03:46:11.100Z,80.78
2023-05-10T03:47:11.081Z,80.79
2023-05-10T03:48:11.112Z,80.84
2023-05-10T03:49:11.082Z,80.88
2023-05-10T03:50:11.087Z,80.79
2023-05-10T03:51:11.092Z,80.64
2023-05-10T03:52:11.096Z,80.77
2023-05-10T03:53:11.089Z,80.67
2023-05-10T03:54:11.093Z,80.63
2023-05-10T03:55:11.083Z,80.60
2023-05-10T03:56:11.085Z,80.69
2023-05-10T03:57:11.100Z,80.57
2023-05-10T03:58:13.087Z,80.68
2023-05-10T03:59:12.090Z,80.69
2023-05-10T04:00:11.083Z,80.98
2023-05-10T04:01:11.075Z,81.11
2023-05-10T04:02:11.080Z,81.41
2023-05-10T04:03:11.205Z,81.45
2023-05-10T04:04:11.114Z,81.46
2023-05-10T04:05:11.067Z,81.48
2023-05-10T04:06:11.108Z,81.39
2023-05-10T04:07:11.067Z,81.27
2023-05-10T04:08:11.071Z,81.26
2023-05-10T04:09:11.087Z,81.32
2023-05-10T04:10:11.069Z,81.19
2023-05-10T04:11:14.063Z,81.07
2023-05-10T04:12:11.229Z,81.07
2023-05-10T04:13:11.166Z,80.87
2023-05-10T04:14:11.064Z,80.84
2023-05-10T04:15:11.064Z,80.78
2023-05-10T04:16:11.076Z,80.87
2023-05-10T04:17:11.092Z,80.92
2023-05-10T04:18:11.153Z,80.84
2023-05-10T04:19:11.078Z,80.82
2023-05-10T04:20:11.069Z,80.67
2023-05-10T04:21:15.070Z,80.75
2023-05-10T04:22:11.068Z,80.68
2023-05-10T04:23:11.067Z,80.53
2023-05-10T04:24:11.170Z,80.43
2023-05-10T04:25:11.066Z,80.52
2023-05-10T04:26:11.067Z,80.59
2023-05-10T04:27:11.065Z,80.57
2023-05-10T04:28:11.067Z,80.70
2023-05-10T04:29:11.076Z,80.63
2023-05-10T04:30:11.071Z,80.62
2023-05-10T04:31:11.095Z,80.70
2023-05-10T04:32:11.078Z,80.65
2023-05-10T04:33:11.074Z,80.72
2023-05-10T04:34:11.069Z,80.66
2023-05-10T04:35:11.116Z,80.71
2023-05-10T04:36:11.071Z,80.70
2023-05-10T04:37:11.066Z,80.77
2023-05-10T04:38:11.072Z,80.83
2023-05-10T04:39:11.066Z,80.81
2023-05-10T04:40:11.068Z,80.72
2023-05-10T04:41:11.073Z,80.90
2023-05-10T04:42:11.067Z,80.96
2023-05-10T04:43:11.066Z,80.90
2023-05-10T04:44:11.067Z,81.05
2023-05-10T04:45:11.068Z,81.12
2023-05-10T04:46:11.117Z,81.15
2023-05-10T04:47:12.597Z,81.27
2023-05-10T04:48:11.069Z,81.23
2023-05-10T04:49:11.067Z,81.48
2023-05-10T04:50:11.077Z,81.57
2023-05-10T04:51:11.073Z,81.90
2023-05-10T04:52:11.061Z,81.98
2023-05-10T04:53:11.093Z,82.14
2023-05-10T04:54:11.080Z,82.12
2023-05-10T04:55:12.085Z,82.03
2023-05-10T04:56:11.064Z,81.88
2023-05-10T04:57:11.075Z,81.80
2023-05-10T04:58:11.078Z,81.66
2023-05-10T04:59:11.073Z,81.89
2023-05-10T05:00:11.080Z,81.99
2023-05-10T05:01:11.130Z,81.83
2023-05-10T05:02:11.067Z,81.73
2023-05-10T05:03:11.228Z,81.62
2023-05-10T05:04:11.065Z,81.60
2023-05-10T05:05:11.071Z,81.59
2023-05-10T05:06:11.068Z,81.55
2023-05-10T05:07:11.076Z,81.42
2023-05-10T05:08:11.082Z,81.45
2023-05-10T05:09:11.100Z,81.43
2023-05-10T05:10:11.075Z,81.50
2023-05-10T05:11:11.077Z,81.66
2023-05-10T05:12:11.072Z,81.86
2023-05-10T05:13:11.112Z,82.04
2023-05-10T05:14:11.066Z,82.26
2023-05-10T05:15:11.088Z,82.54
2023-05-10T05:16:11.137Z,82.49
2023-05-10T05:17:11.078Z,82.48
2023-05-10T05:18:11.196Z,82.42
2023-05-10T05:19:11.077Z,82.36
2023-05-10T05:20:11.071Z,82.25
2023-05-10T05:21:15.073Z,82.11
2023-05-10T05:22:11.082Z,81.99
2023-05-10T05:23:11.073Z,81.86
2023-05-10T05:24:11.086Z,81.82
2023-05-10T05:25:11.087Z,81.61
2023-05-10T05:26:11.078Z,81.52
2023-05-10T05:27:11.069Z,81.51
2023-05-10T05:28:11.081Z,81.48
2023-05-10T05:29:11.089Z,81.45
2023-05-10T05:30:11.072Z,81.38
2023-05-10T05:31:11.177Z,81.57
2023-05-10T05:32:11.169Z,81.44
2023-05-10T05:33:11.130Z,81.23
2023-05-10T05:34:11.084Z,81.15
2023-05-10T05:35:11.079Z,81.23
2023-05-10T05:36:11.075Z,81.08
2023-05-10T05:37:13.072Z,81.02
2023-05-10T05:38:11.075Z,80.93
2023-05-10T05:39:11.070Z,80.90
2023-05-10T05:40:13.083Z,80.89
2023-05-10T05:41:11.079Z,80.83
2023-05-10T05:42:11.068Z,80.79
2023-05-10T05:43:11.081Z,80.76
2023-05-10T05:44:11.101Z,80.74
2023-05-10T05:45:11.077Z,80.79
2023-05-10T05:46:11.128Z,80.92
2023-05-10T05:47:11.076Z,81.12
2023-05-10T05:48:11.129Z,81.09
2023-05-10T05:49:11.078Z,81.13
2023-05-10T05:50:11.095Z,81.27
2023-05-10T05:51:11.076Z,81.19
2023-05-10T05:52:11.067Z,81.09
2023-05-10T05:53:11.153Z,81.09
2023-05-10T05:54:11.075Z,81.27
2023-05-10T05:55:11.069Z,81.39
2023-05-10T05:56:11.077Z,81.42
2023-05-10T05:57:11.075Z,81.46
2023-05-10T05:58:11.078Z,81.37
2023-05-10T05:59:11.080Z,81.42
2023-05-10T06:00:11.077Z,81.45
2023-05-10T06:01:11.091Z,81.60
2023-05-10T06:02:11.113Z,81.82
2023-05-10T06:03:11.159Z,81.80
2023-05-10T06:04:11.121Z,82.07
2023-05-10T06:05:11.081Z,82.15
2023-05-10T06:06:11.077Z,82.27
2023-05-10T06:07:11.075Z,82.10
2023-05-10T06:08:11.073Z,82.00
2023-05-10T06:09:11.079Z,81.99
2023-05-10T06:10:11.082Z,82.07
2023-05-10T06:11:11.077Z,82.05
2023-05-10T06:12:11.078Z,82.15
2023-05-10T06:13:11.149Z,82.12
2023-05-10T06:14:11.078Z,82.23
2023-05-10T06:15:11.093Z,82.17
2023-05-10T06:16:11.121Z,82.02
2023-05-10T06:17:11.082Z,81.95
2023-05-10T06:18:11.155Z,82.03
2023-05-10T06:19:11.080Z,82.18
2023-05-10T06:20:11.085Z,82.06
2023-05-10T06:21:11.096Z,82.24
2023-05-10T06:22:11.080Z,82.02
2023-05-10T06:23:11.078Z,82.04
2023-05-10T06:24:11.080Z,81.91
2023-05-10T06:25:11.126Z,81.89
2023-05-10T06:26:11.076Z,81.85
2023-05-10T06:27:11.090Z,81.90
2023-05-10T06:28:11.083Z,81.87
2023-05-10T06:29:11.087Z,81.88
2023-05-10T06:30:13.468Z,81.80
2023-05-10T06:31:11.088Z,81.80
2023-05-10T06:32:11.079Z,81.56
2023-05-10T06:33:11.111Z,81.26
2023-05-10T06:34:11.079Z,81.22
2023-05-10T06:35:11.091Z,81.09
2023-05-10T06:36:11.095Z,81.21
2023-05-10T06:37:11.081Z,81.23
2023-05-10T06:38:11.082Z,80.99
2023-05-10T06:39:11.083Z,80.96
2023-05-10T06:40:11.084Z,81.00
2023-05-10T06:41:11.081Z,81.01
2023-05-10T06:42:11.086Z,81.19
2023-05-10T06:43:11.081Z,81.13
2023-05-10T06:44:11.085Z,81.19
2023-05-10T06:45:11.088Z,81.08
2023-05-10T06:46:11.131Z,81.09
2023-05-10T06:47:11.080Z,80.98
2023-05-10T06:48:11.147Z,81.07
2023-05-10T06:49:11.091Z,80.88
2023-05-10T06:50:11.092Z,80.90
2023-05-10T06:51:11.085Z,80.84
2023-05-10T06:52:11.083Z,80.64
2023-05-10T06:53:11.096Z,80.50
2023-05-10T06:54:11.091Z,80.29
2023-05-10T06:55:11.087Z,80.14
2023-05-10T06:56:11.089Z,80.01
2023-05-10T06:57:23.375Z,80.04
2023-05-10T06:58:13.105Z,80.00
2023-05-10T06:59:11.102Z,80.10
2023-05-10T07:00:11.105Z,79.94
2023-05-10T07:01:11.276Z,79.96
2023-05-10T07:02:11.124Z,79.55
2023-05-10T07:03:12.174Z,79.59
2023-05-10T07:04:11.075Z,79.59
2023-05-10T07:05:11.059Z,79.40
2023-05-10T07:06:21.711Z,79.18
2023-05-10T07:07:13.039Z,79.11
2023-05-10T07:08:11.065Z,79.25
2023-05-10T07:09:11.062Z,79.05
2023-05-10T07:10:11.071Z,78.99
2023-05-10T07:11:11.065Z,78.75
2023-05-10T07:12:12.743Z,78.42
2023-05-10T07:13:11.128Z,78.29
2023-05-10T07:14:11.069Z,77.60
2023-05-10T07:15:11.065Z,77.55
2023-05-10T07:16:11.133Z,77.25
2023-05-10T07:17:11.147Z,77.07
2023-05-10T07:18:11.134Z,76.95
2023-05-10T07:19:11.064Z,76.66
2023-05-10T07:20:11.073Z,76.62
2023-05-10T07:21:11.100Z,76.45
2023-05-10T07:22:11.066Z,75.91
2023-05-10T07:23:11.067Z,75.66
2023-05-10T07:24:11.063Z,75.70
2023-05-10T07:25:11.068Z,75.73
2023-05-10T07:26:11.075Z,75.93
2023-05-10T07:27:11.063Z,75.81
2023-05-10T07:28:11.072Z,75.89
2023-05-10T07:29:11.077Z,75.75
2023-05-10T07:30:11.072Z,75.88
2023-05-10T07:31:11.201Z,75.86
2023-05-10T07:32:11.122Z,75.93
2023-05-10T07:33:11.137Z,75.73
2023-05-10T07:34:11.077Z,75.91
2023-05-10T07:35:11.090Z,75.76
2023-05-10T07:36:11.069Z,75.64
2023-05-10T07:37:11.084Z,75.96
2023-05-10T07:38:11.074Z,75.99
2023-05-10T07:39:12.731Z,76.03
2023-05-10T07:40:13.034Z,75.70
2023-05-10T07:41:11.069Z,75.41
2023-05-10T07:42:11.078Z,75.36
2023-05-10T07:43:11.065Z,75.37
2023-05-10T07:44:11.065Z,75.18
2023-05-10T07:45:11.071Z,75.08
2023-05-10T07:46:11.197Z,74.89
2023-05-10T07:47:11.084Z,74.79
2023-05-10T07:48:11.068Z,74.54
2023-05-10T07:49:11.067Z,74.34
2023-05-10T07:50:11.101Z,74.10
2023-05-10T07:51:12.080Z,73.96
2023-05-10T07:52:11.093Z,74.23
2023-05-10T07:53:11.076Z,73.87
2023-05-10T07:54:11.078Z,74.10
2023-05-10T07:55:11.071Z,73.76
2023-05-10T07:56:19.071Z,73.68
2023-05-10T07:57:11.066Z,73.48
2023-05-10T07:58:11.065Z,73.73
2023-05-10T07:59:12.819Z,73.53
2023-05-10T08:00:13.095Z,73.35
2023-05-10T08:01:11.081Z,72.93
2023-05-10T08:02:11.131Z,73.12
2023-05-10T08:03:11.173Z,72.91
2023-05-10T08:04:11.131Z,72.62
2023-05-10T08:05:11.073Z,72.69
2023-05-10T08:06:11.085Z,72.43
2023-05-10T08:07:11.125Z,72.45
2023-05-10T08:08:11.076Z,71.97
2023-05-10T08:09:11.100Z,71.96
2023-05-10T08:10:11.065Z,72.14
2023-05-10T08:11:11.067Z,71.83
2023-05-10T08:12:11.076Z,71.19
2023-05-10T08:13:11.071Z,71.68
2023-05-10T08:14:11.071Z,72.33
2023-05-10T08:15:11.080Z,72.11
2023-05-10T08:16:11.093Z,71.79
2023-05-10T08:17:11.069Z,71.58
2023-05-10T08:18:11.108Z,71.28
2023-05-10T08:19:11.100Z,71.09
2023-05-10T08:20:11.070Z,71.09
2023-05-10T08:21:11.153Z,70.83
2023-05-10T08:22:11.073Z,70.78
2023-05-10T08:23:11.067Z,70.64
2023-05-10T08:24:11.071Z,70.60
2023-05-10T08:25:11.065Z,70.41
2023-05-10T08:26:11.069Z,70.38
2023-05-10T08:27:11.076Z,70.90
2023-05-10T08:28:11.962Z,70.78
2023-05-10T08:29:11.069Z,70.85
2023-05-10T08:30:11.077Z,70.74
2023-05-10T08:31:11.079Z,70.79
2023-05-10T08:32:11.077Z,70.67
2023-05-10T08:33:11.181Z,70.96
2023-05-10T08:34:11.070Z,70.55
2023-05-10T08:35:11.076Z,70.72
2023-05-10T08:36:11.074Z,70.51
2023-05-10T08:37:11.068Z,70.55
2023-05-10T08:38:11.073Z,70.64
2023-05-10T08:39:22.806Z,70.82
2023-05-10T08:40:14.071Z,70.92
2023-05-10T08:41:11.083Z,70.98
2023-05-10T08:42:11.080Z,71.28
2023-05-10T08:43:11.091Z,71.64
2023-05-10T08:44:11.082Z,71.52
2023-05-10T08:45:11.081Z,71.67
2023-05-10T08:46:11.117Z,71.70
2023-05-10T08:47:11.204Z,71.51
2023-05-10T08:48:11.179Z,71.81
2023-05-10T08:49:12.074Z,71.83
2023-05-10T08:50:11.079Z,71.83
2023-05-10T08:51:11.091Z,71.71
2023-05-10T08:52:11.085Z,72.10
2023-05-10T08:53:14.076Z,72.23
2023-05-10T08:54:11.079Z,72.45
2023-05-10T08:55:11.084Z,72.14
2023-05-10T08:56:11.124Z,72.54
2023-05-10T08:57:11.084Z,72.47
2023-05-10T08:58:11.100Z,72.34
2023-05-10T08:59:11.074Z,72.58
2023-05-10T09:00:11.078Z,72.49
2023-05-10T09:01:11.107Z,72.02
2023-05-10T09:02:12.082Z,71.88
2023-05-10T09:03:11.088Z,71.68
2023-05-10T09:04:11.141Z,71.84
2023-05-10T09:05:11.134Z,71.59
2023-05-10T09:06:12.082Z,71.12
2023-05-10T09:07:11.076Z,70.85
2023-05-10T09:08:11.084Z,70.85
2023-05-10T09:09:11.096Z,70.89
2023-05-10T09:10:11.105Z,70.55
2023-05-10T09:11:11.080Z,70.19
2023-05-10T09:12:11.093Z,69.96
2023-05-10T09:13:11.089Z,69.66
2023-05-10T09:14:11.116Z,69.22
2023-05-10T09:15:11.091Z,68.99
2023-05-10T09:16:21.370Z,69.57
2023-05-10T09:17:13.133Z,68.87
2023-05-10T09:18:11.128Z,69.02
2023-05-10T09:19:11.202Z,69.06
2023-05-10T09:20:11.080Z,69.06
2023-05-10T09:21:11.091Z,68.71
2023-05-10T09:22:11.082Z,68.62
2023-05-10T09:23:11.096Z,68.59
2023-05-10T09:24:11.103Z,68.42
2023-05-10T09:25:13.091Z,67.95
2023-05-10T09:26:11.108Z,68.03
2023-05-10T09:27:11.092Z,67.83
2023-05-10T09:28:11.085Z,67.20
2023-05-10T09:29:11.082Z,67.49
2023-05-10T09:30:11.089Z,67.74
2023-05-10T09:31:11.098Z,67.63
2023-05-10T09:32:11.098Z,67.62
2023-05-10T09:33:11.089Z,67.54
2023-05-10T09:34:11.081Z,67.62
2023-05-10T09:35:13.093Z,67.60
2023-05-10T09:36:11.089Z,67.67
2023-05-10T09:37:11.080Z,67.16
2023-05-10T09:38:11.258Z,67.39
2023-05-10T09:39:11.086Z,66.96
2023-05-10T09:40:19.088Z,66.63
2023-05-10T09:41:17.086Z,66.85
2023-05-10T09:42:11.089Z,66.60
2023-05-10T09:43:11.097Z,66.19
2023-05-10T09:44:11.088Z,66.03
2023-05-10T09:45:11.085Z,66.20
2023-05-10T09:46:11.117Z,66.18
2023-05-10T09:47:11.081Z,66.63
2023-05-10T09:48:11.134Z,66.35
2023-05-10T09:49:14.095Z,66.18
2023-05-10T09:50:11.086Z,66.13
2023-05-10T09:51:11.091Z,66.18
2023-05-10T09:52:11.094Z,66.70
2023-05-10T09:53:11.082Z,67.17
2023-05-10T09:54:13.102Z,66.79
2023-05-10T09:55:11.090Z,66.97
2023-05-10T09:56:11.088Z,67.21
2023-05-10T09:57:19.102Z,66.82
2023-05-10T09:58:14.102Z,67.07
2023-05-10T09:59:11.086Z,66.71
2023-05-10T10:00:11.102Z,67.12
2023-05-10T10:01:13.139Z,67.12
2023-05-10T10:02:11.070Z,67.36
2023-05-10T10:03:15.112Z,67.23
2023-05-10T10:04:11.079Z,67.42
2023-05-10T10:05:11.086Z,67.37
2023-05-10T10:06:18.887Z,67.23
2023-05-10T10:07:13.082Z,67.32
2023-05-10T10:08:11.078Z,66.96
2023-05-10T10:09:11.063Z,66.76
2023-05-10T10:10:11.072Z,66.63
2023-05-10T10:11:11.068Z,66.41
2023-05-10T10:12:11.066Z,66.36
2023-05-10T10:13:11.067Z,66.35
2023-05-10T10:14:12.072Z,66.25
2023-05-10T10:15:11.085Z,65.97
2023-05-10T10:16:11.123Z,65.90
2023-05-10T10:17:11.079Z,66.05
2023-05-10T10:18:13.068Z,65.60
2023-05-10T10:19:11.069Z,65.48
2023-05-10T10:20:12.266Z,65.31
2023-05-10T10:21:11.068Z,65.53
2023-05-10T10:22:11.072Z,65.53
2023-05-10T10:23:11.071Z,65.85
2023-05-10T10:24:11.070Z,65.82
2023-05-10T10:25:11.067Z,65.65
2023-05-10T10:26:11.075Z,65.89
2023-05-10T10:27:19.069Z,65.56
2023-05-10T10:28:19.071Z,65.69
2023-05-10T10:29:21.079Z,65.98
2023-05-10T10:30:20.072Z,66.12
2023-05-10T10:31:21.132Z,66.23
2023-05-10T10:32:19.072Z,66.34
2023-05-10T10:33:27.822Z,66.58
2023-05-10T10:34:14.060Z,66.64
2023-05-10T10:35:11.085Z,67.26
2023-05-10T10:36:11.067Z,67.66
2023-05-10T10:37:11.075Z,68.48
2023-05-10T10:38:11.073Z,68.96
2023-05-10T10:39:12.074Z,69.74
2023-05-10T10:40:19.076Z,70.60
2023-05-10T10:41:17.079Z,71.00
2023-05-10T10:42:11.077Z,71.74
2023-05-10T10:43:19.078Z,71.95
2023-05-10T10:44:19.086Z,72.27
2023-05-10T10:45:15.367Z,72.66
2023-05-10T10:46:17.150Z,72.93
2023-05-10T10:47:24.211Z,73.51
2023-05-10T10:48:19.072Z,74.01
2023-05-10T10:49:13.077Z,74.00
2023-05-10T10:50:11.076Z,74.05
2023-05-10T10:51:12.789Z,74.68
2023-05-10T10:52:21.099Z,74.98
2023-05-10T10:53:13.164Z,74.60
2023-05-10T10:54:13.100Z,75.01
2023-05-10T10:55:19.400Z,74.36
2023-05-10T10:56:13.079Z,74.81
2023-05-10T10:57:13.074Z,74.81
2023-05-10T10:58:11.124Z,74.92
2023-05-10T10:59:11.075Z,75.04
2023-05-10T11:00:19.077Z,74.93
2023-05-10T11:01:17.160Z,75.18
2023-05-10T11:02:11.076Z,75.50
2023-05-10T11:03:13.127Z,75.07
2023-05-10T11:04:18.167Z,74.76
2023-05-10T11:05:19.096Z,74.64
2023-05-10T11:06:11.079Z,74.67
2023-05-10T11:07:17.073Z,75.06
2023-05-10T11:08:21.080Z,74.63
2023-05-10T11:09:11.083Z,75.24
2023-05-10T11:10:11.094Z,75.11
2023-05-10T11:11:14.076Z,75.00
2023-05-10T11:12:12.073Z,74.56
2023-05-10T11:13:11.077Z,74.05
2023-05-10T11:14:11.083Z,73.63
2023-05-10T11:15:11.076Z,73.40
2023-05-10T11:16:20.238Z,73.14
2023-05-10T11:17:19.092Z,73.37
2023-05-10T11:18:17.095Z,72.98
2023-05-10T11:19:11.110Z,73.01
2023-05-10T11:20:11.084Z,73.19
2023-05-10T11:21:11.084Z,72.64
2023-05-10T11:22:15.071Z,72.29
2023-05-10T11:23:15.077Z,72.68
2023-05-10T11:24:15.085Z,72.18
2023-05-10T11:25:11.077Z,71.98
2023-05-10T11:26:14.078Z,72.18
2023-05-10T11:27:11.084Z,71.65
2023-05-10T11:28:11.078Z,72.25
2023-05-10T11:29:11.073Z,71.94
2023-05-10T11:30:12.078Z,70.70
2023-05-10T11:31:11.086Z,70.51
2023-05-10T11:32:12.075Z,70.91
2023-05-10T11:33:11.082Z,70.25
2023-05-10T11:34:11.079Z,70.29
2023-05-10T11:35:13.076Z,69.62
2023-05-10T11:36:15.081Z,69.88
2023-05-10T11:37:11.086Z,69.42
2023-05-10T11:38:11.080Z,69.24
2023-05-10T11:39:11.087Z,69.07
2023-05-10T11:40:11.139Z,68.71
2023-05-10T11:41:13.078Z,68.47
2023-05-10T11:42:11.086Z,67.51
2023-05-10T11:43:11.092Z,68.30
2023-05-10T11:44:11.084Z,67.79
2023-05-10T11:45:11.081Z,67.54
2023-05-10T11:46:13.153Z,66.72
2023-05-10T11:47:11.088Z,66.09
2023-05-10T11:48:11.151Z,65.46
2023-05-10T11:49:11.114Z,66.85
2023-05-10T11:50:11.087Z,65.42
2023-05-10T11:51:13.081Z,64.93
2023-05-10T11:52:11.082Z,63.94
2023-05-10T11:53:11.095Z,65.22
2023-05-10T11:54:11.086Z,64.73
2023-05-10T11:55:11.097Z,64.09
2023-05-10T11:56:11.086Z,63.93
2023-05-10T11:57:11.080Z,63.61
2023-05-10T11:58:11.089Z,63.27
2023-05-10T11:59:11.084Z,64.08
2023-05-10T12:00:11.088Z,64.89
2023-05-10T12:01:11.084Z,64.59
2023-05-10T12:02:11.086Z,64.83
2023-05-10T12:03:11.264Z,65.54
2023-05-10T12:04:11.269Z,65.86
2023-05-10T12:05:11.151Z,65.95
2023-05-10T12:06:11.080Z,65.83
2023-05-10T12:07:11.096Z,65.68
2023-05-10T12:08:15.084Z,65.61
2023-05-10T12:09:11.107Z,65.81
2023-05-10T12:10:13.125Z,65.48
2023-05-10T12:11:11.097Z,65.59
2023-05-10T12:12:11.104Z,65.42
2023-05-10T12:13:15.111Z,64.62
2023-05-10T12:14:11.090Z,64.63
2023-05-10T12:15:17.087Z,64.29
2023-05-10T12:16:21.164Z,63.59
2023-05-10T12:17:14.092Z,63.53
2023-05-10T12:18:15.160Z,63.41
2023-05-10T12:19:11.257Z,63.19
2023-05-10T12:20:15.353Z,63.16
2023-05-10T12:21:11.090Z,62.67
2023-05-10T12:22:11.095Z,61.93
2023-05-10T12:23:11.101Z,61.49
2023-05-10T12:24:11.094Z,61.26
2023-05-10T12:25:11.097Z,61.12
2023-05-10T12:26:12.084Z,60.92
2023-05-10T12:27:12.090Z,61.20
2023-05-10T12:28:11.089Z,61.33
2023-05-10T12:29:15.087Z,61.32
2023-05-10T12:30:11.092Z,61.83
2023-05-10T12:31:11.092Z,62.15
2023-05-10T12:32:11.217Z,62.70
2023-05-10T12:33:13.228Z,62.76
2023-05-10T12:34:11.092Z,63.32
2023-05-10T12:35:11.094Z,64.01
2023-05-10T12:36:11.099Z,64.97
2023-05-10T12:37:11.094Z,64.43
2023-05-10T12:38:19.094Z,64.95
2023-05-10T12:39:11.093Z,64.96
2023-05-10T12:40:11.101Z,65.11
2023-05-10T12:41:11.122Z,64.52
2023-05-10T12:42:11.103Z,64.50
2023-05-10T12:43:11.100Z,64.41
2023-05-10T12:44:11.094Z,64.81
2023-05-10T12:45:11.096Z,63.94
2023-05-10T12:46:13.151Z,62.61
2023-05-10T12:47:11.149Z,61.40
2023-05-10T12:48:11.153Z,61.13
2023-05-10T12:49:11.096Z,60.76
2023-05-10T12:50:11.123Z,60.65
2023-05-10T12:51:11.100Z,61.00
2023-05-10T12:52:11.115Z,60.67